Time;durP1;ratioP1;P1;durP2;ratioP2;P2;SDS_P1;SDS_P2;PMS_P1;PMS_P2;Temp;Humidity;BMP_temperature;BMP_pressure;BME280_temperature;BME280_humidity;BME280_pressure;Samples;Min_cycle;Max_cycle;Signal;HPM_P1;HPM_P2
2022/09/30 00:00:57;;;;;;;11.77;9.85;;;;;;;;;;5073234;28;20534;-60
2022/09/30 00:03:24;;;;;;;12.67;10.20;;;;;;;;;;5073136;28;20193;-60
2022/09/30 00:05:56;;;;;;;12.20;9.70;;;;;;;;;;5072989;28;20536;-60
2022/09/30 00:08:23;;;;;;;11.68;8.98;;;;;;;;;;5072964;28;20970;-61
2022/09/30 00:11:00;;;;;;;16.00;10.23;;;;;;;;;;5073180;28;20196;-60
2022/09/30 00:13:27;;;;;;;10.60;9.35;;;;;;;;;;5072902;28;20648;-61
2022/09/30 00:15:54;;;;;;;10.40;9.30;;;;;;;;;;5072793;28;20231;-60
2022/09/30 00:18:21;;;;;;;8.87;7.60;;;;;;;;;;5072746;28;20271;-61
2022/09/30 00:20:48;;;;;;;8.73;7.70;;;;;;;;;;5072933;28;20483;-60
2022/09/30 00:23:15;;;;;;;11.83;9.73;;;;;;;;;;5073142;28;20557;-60
2022/09/30 00:25:42;;;;;;;12.83;8.83;;;;;;;;;;5072962;28;20521;-61
2022/09/30 00:28:10;;;;;;;10.07;8.93;;;;;;;;;;5072859;28;20447;-60
2022/09/30 00:30:37;;;;;;;9.73;7.75;;;;;;;;;;5072810;28;20957;-60
2022/09/30 00:33:04;;;;;;;9.73;7.55;;;;;;;;;;5072606;28;20682;-60
2022/09/30 00:35:31;;;;;;;9.65;7.38;;;;;;;;;;5072864;28;20220;-61
2022/09/30 00:37:59;;;;;;;11.73;7.53;;;;;;;;;;5072904;28;20197;-61
2022/09/30 00:40:26;;;;;;;7.18;6.47;;;;;;;;;;5072824;28;20189;-61
2022/09/30 00:42:54;;;;;;;7.90;7.10;;;;;;;;;;5072603;28;20195;-61
2022/09/30 00:45:22;;;;;;;8.73;7.73;;;;;;;;;;5072593;28;20455;-61
2022/09/30 00:47:52;;;;;;;7.88;7.18;;;;;;;;;;5072578;28;20451;-61
2022/09/30 00:50:21;;;;;;;16.33;7.20;;;;;;;;;;5072770;28;20195;-61
2022/09/30 00:52:51;;;;;;;10.50;7.90;;;;;;;;;;5074735;28;20901;-61
2022/09/30 00:55:24;;;;;;;6.57;5.93;;;;;;;;;;5076601;28;20478;-61
2022/09/30 00:57:51;;;;;;;6.82;5.60;;;;;;;;;;5076616;28;20193;-61
2022/09/30 01:00:18;;;;;;;6.53;5.87;;;;;;;;;;5076420;28;20702;-61
2022/09/30 01:02:48;;;;;;;7.13;6.45;;;;;;;;;;5076839;28;20453;-61
2022/09/30 01:05:15;;;;;;;6.22;5.68;;;;;;;;;;5076508;28;20193;-61
2022/09/30 01:07:42;;;;;;;7.85;6.63;;;;;;;;;;5076427;28;20195;-61
2022/09/30 01:10:09;;;;;;;6.22;5.63;;;;;;;;;;5076316;28;20199;-61
2022/09/30 01:12:36;;;;;;;6.37;5.23;;;;;;;;;;5076225;28;20275;-61
2022/09/30 01:15:03;;;;;;;5.10;4.60;;;;;;;;;;5076273;28;20471;-61
2022/09/30 01:17:36;;;;;;;5.28;4.82;;;;;;;;;;5076354;28;20451;-61
2022/09/30 01:20:26;;;;;;;5.77;5.27;;;;;;;;;;5076271;28;20189;-61
2022/09/30 01:23:00;;;;;;;6.13;5.50;;;;;;;;;;5076004;28;20455;-60
2022/09/30 01:25:48;;;;;;;6.22;5.57;;;;;;;;;;5076252;28;20196;-60
2022/09/30 01:28:23;;;;;;;5.00;4.57;;;;;;;;;;5076057;28;20196;-60
2022/09/30 01:30:59;;;;;;;5.63;5.13;;;;;;;;;;5076048;28;20188;-61
2022/09/30 01:33:32;;;;;;;6.40;5.80;;;;;;;;;;5075827;28;20185;-61
2022/09/30 01:36:07;;;;;;;6.03;5.32;;;;;;;;;;5075999;28;20266;-61
2022/09/30 01:38:43;;;;;;;5.75;5.00;;;;;;;;;;5075897;28;20184;-61
2022/09/30 01:41:11;;;;;;;5.45;4.95;;;;;;;;;;5075815;28;20199;-60
2022/09/30 01:43:41;;;;;;;5.75;5.15;;;;;;;;;;5075668;28;20189;-61
2022/09/30 01:46:14;;;;;;;6.40;5.22;;;;;;;;;;5075830;28;20191;-61
2022/09/30 01:48:43;;;;;;;5.00;4.50;;;;;;;;;;5075790;28;20284;-61
2022/09/30 01:51:12;;;;;;;6.95;4.63;;;;;;;;;;5075700;28;20185;-61
2022/09/30 01:53:41;;;;;;;5.53;5.10;;;;;;;;;;5075517;28;20195;-61
2022/09/30 01:56:12;;;;;;;5.35;4.85;;;;;;;;;;5075379;28;20236;-61
2022/09/30 01:58:42;;;;;;;6.25;5.65;;;;;;;;;;5075446;28;20714;-61
2022/09/30 02:01:15;;;;;;;5.72;5.25;;;;;;;;;;5075562;28;20208;-61
2022/09/30 02:03:45;;;;;;;6.15;5.20;;;;;;;;;;5075216;28;20587;-61
2022/09/30 02:06:13;;;;;;;6.35;5.70;;;;;;;;;;5075309;28;20196;-61
2022/09/30 02:08:42;;;;;;;6.18;5.72;;;;;;;;;;5075285;28;20191;-61
2022/09/30 02:11:11;;;;;;;6.22;5.63;;;;;;;;;;5075118;28;20196;-61
2022/09/30 02:13:40;;;;;;;7.47;6.70;;;;;;;;;;5075259;28;20189;-61
2022/09/30 02:16:12;;;;;;;5.93;5.38;;;;;;;;;;5075149;28;20220;-61
2022/09/30 02:18:42;;;;;;;6.05;5.65;;;;;;;;;;5075228;28;20576;-61
2022/09/30 02:21:10;;;;;;;5.57;5.07;;;;;;;;;;5074936;28;20217;-61
2022/09/30 02:23:40;;;;;;;6.35;5.57;;;;;;;;;;5074824;28;20192;-62
2022/09/30 02:26:09;;;;;;;6.15;5.55;;;;;;;;;;5075132;28;20193;-62
2022/09/30 02:28:38;;;;;;;6.50;5.03;;;;;;;;;;5074969;28;20229;-61
2022/09/30 02:31:06;;;;;;;6.88;6.22;;;;;;;;;;5074890;28;20189;-61
2022/09/30 02:33:35;;;;;;;5.80;5.40;;;;;;;;;;5074714;28;20192;-61
2022/09/30 02:36:05;;;;;;;5.55;5.03;;;;;;;;;;5074546;28;20479;-61
2022/09/30 02:38:35;;;;;;;5.45;5.05;;;;;;;;;;5074654;28;20671;-62
2022/09/30 02:41:05;;;;;;;6.30;5.63;;;;;;;;;;5074814;28;20197;-61
2022/09/30 02:43:32;;;;;;;5.88;5.38;;;;;;;;;;5074571;28;20217;-61
2022/09/30 02:46:04;;;;;;;6.15;5.55;;;;;;;;;;5074549;28;20534;-61
2022/09/30 02:48:35;;;;;;;6.30;5.75;;;;;;;;;;5074489;28;20193;-61
2022/09/30 02:51:06;;;;;;;6.75;6.07;;;;;;;;;;5074579;28;20200;-61
2022/09/30 02:53:36;;;;;;;6.68;5.85;;;;;;;;;;5074406;28;20189;-62
2022/09/30 02:56:07;;;;;;;7.10;6.40;;;;;;;;;;5074277;28;20213;-61
2022/09/30 02:58:35;;;;;;;7.28;6.60;;;;;;;;;;5074245;28;20189;-61
2022/09/30 03:01:03;;;;;;;6.03;5.43;;;;;;;;;;5074099;28;20275;-61
2022/09/30 03:03:32;;;;;;;6.55;5.45;;;;;;;;;;5074101;28;20667;-61
2022/09/30 03:05:59;;;;;;;7.03;6.30;;;;;;;;;;5074277;28;20193;-61
2022/09/30 03:08:28;;;;;;;6.50;5.90;;;;;;;;;;5074111;28;20189;-61
2022/09/30 03:10:55;;;;;;;6.82;6.13;;;;;;;;;;5073895;28;20672;-61
2022/09/30 03:13:30;;;;;;;8.18;6.78;;;;;;;;;;5073848;28;20246;-61
2022/09/30 03:16:04;;;;;;;6.70;5.93;;;;;;;;;;5073381;28;20575;-61
2022/09/30 03:18:42;;;;;;;6.15;5.65;;;;;;;;;;5074031;28;20200;-61
2022/09/30 03:21:16;;;;;;;5.95;5.40;;;;;;;;;;5073738;28;20707;-62
2022/09/30 03:23:57;;;;;;;7.68;5.85;;;;;;;;;;5073650;28;20185;-61
2022/09/30 03:26:28;;;;;;;6.35;5.85;;;;;;;;;;5073812;28;20193;-61
2022/09/30 03:29:02;;;;;;;6.43;5.82;;;;;;;;;;5073824;28;20636;-61
2022/09/30 03:31:33;;;;;;;6.45;5.85;;;;;;;;;;5073704;28;20548;-61
2022/09/30 03:34:05;;;;;;;6.55;5.70;;;;;;;;;;5073570;28;20193;-61
2022/09/30 03:36:36;;;;;;;6.30;5.70;;;;;;;;;;5073661;28;20558;-61
2022/09/30 03:39:09;;;;;;;6.03;5.47;;;;;;;;;;5073644;28;20242;-61
2022/09/30 03:41:39;;;;;;;7.65;5.40;;;;;;;;;;5073516;28;20568;-61
2022/09/30 03:44:08;;;;;;;5.20;4.70;;;;;;;;;;5073386;28;20240;-61
2022/09/30 03:46:37;;;;;;;5.38;4.88;;;;;;;;;;5073336;28;20201;-61
2022/09/30 03:49:06;;;;;;;6.25;5.65;;;;;;;;;;5073183;28;20199;-61
2022/09/30 03:51:35;;;;;;;8.32;4.90;;;;;;;;;;5073391;28;20216;-61
2022/09/30 03:54:02;;;;;;;22.33;20.60;;;;;;;;;;5073204;28;20189;-61
2022/09/30 03:56:31;;;;;;;10.00;8.98;;;;;;;;;;5073251;28;20568;-61
2022/09/30 03:58:58;;;;;;;9.70;8.75;;;;;;;;;;5073119;28;20189;-61
2022/09/30 04:01:25;;;;;;;5.95;5.35;;;;;;;;;;5073026;28;20193;-61
2022/09/30 04:03:52;;;;;;;5.63;4.70;;;;;;;;;;5073232;28;20196;-61
2022/09/30 04:06:20;;;;;;;6.10;5.50;;;;;;;;;;5073168;28;20276;-61
2022/09/30 04:08:47;;;;;;;5.72;5.32;;;;;;;;;;5073069;28;20189;-61
2022/09/30 04:11:14;;;;;;;7.15;5.68;;;;;;;;;;5072999;28;20196;-61
2022/09/30 04:13:42;;;;;;;5.90;5.40;;;;;;;;;;5072943;28;20200;-61
2022/09/30 04:16:10;;;;;;;5.82;5.22;;;;;;;;;;5072799;28;20304;-61
2022/09/30 04:18:37;;;;;;;6.50;5.90;;;;;;;;;;5072801;28;20253;-61
2022/09/30 04:21:05;;;;;;;24.45;6.20;;;;;;;;;;5072953;28;20640;-61
2022/09/30 04:23:34;;;;;;;6.93;6.32;;;;;;;;;;5072839;28;20215;-61
2022/09/30 04:26:01;;;;;;;12.20;6.05;;;;;;;;;;5072840;28;20597;-61
2022/09/30 04:28:28;;;;;;;8.38;5.88;;;;;;;;;;5072663;28;20185;-61
2022/09/30 04:30:59;;;;;;;7.65;6.85;;;;;;;;;;5072886;28;20589;-61
2022/09/30 04:33:26;;;;;;;7.32;6.35;;;;;;;;;;5072853;28;20648;-61
2022/09/30 04:35:53;;;;;;;6.93;6.32;;;;;;;;;;5072697;28;20189;-61
2022/09/30 04:38:20;;;;;;;7.88;5.85;;;;;;;;;;5072769;28;20533;-61
2022/09/30 04:40:48;;;;;;;7.93;5.55;;;;;;;;;;5072562;28;20280;-61
2022/09/30 04:43:16;;;;;;;5.82;5.25;;;;;;;;;;5072696;28;20196;-61
2022/09/30 04:45:44;;;;;;;9.40;5.57;;;;;;;;;;5072642;28;20238;-61
2022/09/30 04:48:12;;;;;;;6.93;4.95;;;;;;;;;;5072769;28;20200;-61
2022/09/30 04:50:40;;;;;;;6.50;5.90;;;;;;;;;;5072649;28;20196;-61
2022/09/30 04:53:07;;;;;;;5.40;5.00;;;;;;;;;;5072466;28;20199;-61
2022/09/30 04:55:34;;;;;;;5.82;5.32;;;;;;;;;;5072343;28;20280;-61
2022/09/30 04:58:01;;;;;;;14.02;7.05;;;;;;;;;;5072526;28;20584;-61
2022/09/30 05:00:28;;;;;;;10.77;7.15;;;;;;;;;;5072685;28;20283;-61
2022/09/30 05:02:55;;;;;;;7.65;6.82;;;;;;;;;;5072442;28;20193;-61
2022/09/30 05:05:23;;;;;;;11.85;6.55;;;;;;;;;;5072487;28;20239;-61
2022/09/30 05:07:50;;;;;;;8.73;5.85;;;;;;;;;;5072404;28;20229;-61
2022/09/30 05:10:17;;;;;;;6.50;5.68;;;;;;;;;;5072261;28;20276;-61
2022/09/30 05:12:44;;;;;;;9.77;5.47;;;;;;;;;;5072179;28;20552;-61
2022/09/30 05:15:11;;;;;;;9.38;6.45;;;;;;;;;;5072418;28;20190;-61
2022/09/30 05:17:38;;;;;;;7.80;6.00;;;;;;;;;;5072255;28;20217;-61
2022/09/30 05:20:09;;;;;;;9.73;5.85;;;;;;;;;;5072255;28;20189;-61
2022/09/30 05:22:38;;;;;;;7.07;6.38;;;;;;;;;;5071847;28;20225;-61
2022/09/30 05:25:05;;;;;;;7.47;6.45;;;;;;;;;;5072048;28;20665;-61
2022/09/30 05:27:32;;;;;;;6.72;5.85;;;;;;;;;;5072321;28;20192;-61
2022/09/30 05:29:59;;;;;;;7.00;6.13;;;;;;;;;;5072203;28;20216;-61
2022/09/30 05:32:26;;;;;;;6.57;5.85;;;;;;;;;;5072024;28;20279;-61
2022/09/30 05:34:54;;;;;;;9.20;6.50;;;;;;;;;;5072030;28;20185;-61
2022/09/30 05:37:21;;;;;;;9.93;6.95;;;;;;;;;;5071909;28;20228;-61
2022/09/30 05:39:49;;;;;;;9.07;6.20;;;;;;;;;;5075496;28;20185;-61
2022/09/30 05:42:16;;;;;;;8.38;7.40;;;;;;;;;;5075708;28;20564;-61
2022/09/30 05:44:43;;;;;;;8.45;6.97;;;;;;;;;;5075554;28;20189;-61
2022/09/30 05:47:10;;;;;;;10.77;6.82;;;;;;;;;;5075492;28;20671;-61
2022/09/30 05:49:38;;;;;;;10.55;5.88;;;;;;;;;;5075477;28;20193;-61
2022/09/30 05:52:05;;;;;;;7.57;6.78;;;;;;;;;;5075509;28;20186;-61
2022/09/30 05:54:31;;;;;;;10.85;7.35;;;;;;;;;;5075428;28;20189;-61
2022/09/30 05:57:00;;;;;;;8.95;8.05;;;;;;;;;;5075361;28;20217;-61
2022/09/30 05:59:27;;;;;;;9.82;8.95;;;;;;;;;;5075253;28;20272;-61
2022/09/30 06:01:54;;;;;;;13.23;10.43;;;;;;;;;;5075295;28;20211;-61
2022/09/30 06:04:21;;;;;;;11.55;10.32;;;;;;;;;;5075134;28;20276;-61
2022/09/30 06:06:48;;;;;;;12.52;10.88;;;;;;;;;;5075359;28;20200;-61
2022/09/30 06:09:15;;;;;;;13.60;11.40;;;;;;;;;;5075353;28;20276;-61
2022/09/30 06:11:42;;;;;;;13.88;9.65;;;;;;;;;;5075296;28;20215;-61
2022/09/30 06:14:10;;;;;;;11.10;9.13;;;;;;;;;;5075090;28;20276;-61
2022/09/30 06:16:37;;;;;;;18.60;9.13;;;;;;;;;;5074978;28;20224;-61
2022/09/30 06:19:05;;;;;;;12.68;8.93;;;;;;;;;;5074960;28;20280;-61
2022/09/30 06:21:31;;;;;;;11.23;9.60;;;;;;;;;;5074764;28;20714;-61
2022/09/30 06:23:59;;;;;;;10.75;9.65;;;;;;;;;;5074878;28;20191;-61
2022/09/30 06:26:26;;;;;;;14.60;11.27;;;;;;;;;;5074993;28;20196;-61
2022/09/30 06:28:53;;;;;;;10.60;9.45;;;;;;;;;;5074902;28;20193;-61
2022/09/30 06:31:22;;;;;;;12.23;8.85;;;;;;;;;;5074579;28;20200;-61
2022/09/30 06:33:48;;;;;;;12.38;9.35;;;;;;;;;;5074727;28;20189;-61
2022/09/30 06:36:16;;;;;;;13.05;9.15;;;;;;;;;;5074743;28;20192;-61
2022/09/30 06:38:44;;;;;;;11.95;9.57;;;;;;;;;;5074593;28;20217;-61
2022/09/30 06:41:12;;;;;;;12.95;8.90;;;;;;;;;;5074638;28;20705;-61
2022/09/30 06:43:40;;;;;;;14.18;10.02;;;;;;;;;;5074362;28;20284;-61
2022/09/30 06:46:07;;;;;;;15.55;9.35;;;;;;;;;;5074377;28;20196;-61
2022/09/30 06:48:36;;;;;;;12.87;7.77;;;;;;;;;;5074546;28;20287;-61
2022/09/30 06:51:03;;;;;;;9.38;8.25;;;;;;;;;;5073594;28;20447;-61
2022/09/30 06:53:30;;;;;;;9.43;8.52;;;;;;;;;;5074457;28;20190;-64
2022/09/30 06:55:57;;;;;;;12.77;9.27;;;;;;;;;;5074758;28;20514;-61
2022/09/30 06:58:24;;;;;;;9.87;8.43;;;;;;;;;;5074081;28;20490;-61
2022/09/30 07:00:56;;;;;;;9.57;8.00;;;;;;;;;;5074286;28;20454;-61
2022/09/30 07:03:27;;;;;;;7.27;6.77;;;;;;;;;;5074296;28;20451;-61
2022/09/30 07:05:59;;;;;;;8.90;8.10;;;;;;;;;;5074251;28;20534;-61
2022/09/30 07:08:30;;;;;;;10.37;7.83;;;;;;;;;;5074086;28;20447;-61
2022/09/30 07:10:57;;;;;;;9.23;7.40;;;;;;;;;;5073980;28;20447;-61
2022/09/30 07:13:24;;;;;;;10.37;7.90;;;;;;;;;;5073971;28;20530;-61
2022/09/30 07:15:53;;;;;;;13.13;8.83;;;;;;;;;;5073810;28;20938;-61
2022/09/30 07:18:20;;;;;;;8.00;7.30;;;;;;;;;;5073580;28;21014;-61
2022/09/30 07:20:50;;;;;;;8.30;7.50;;;;;;;;;;5073657;28;20479;-61
2022/09/30 07:23:18;;;;;;;9.07;8.17;;;;;;;;;;5073735;28;21080;-61
2022/09/30 07:25:52;;;;;;;8.50;7.70;;;;;;;;;;5073589;28;20454;-61
2022/09/30 07:28:19;;;;;;;8.77;7.63;;;;;;;;;;5073770;28;20447;-61
2022/09/30 07:30:46;;;;;;;8.93;8.13;;;;;;;;;;5073639;28;20444;-61
2022/09/30 07:33:15;;;;;;;10.67;8.20;;;;;;;;;;5073537;28;20858;-61
2022/09/30 07:35:42;;;;;;;11.00;9.90;;;;;;;;;;5073403;28;20449;-61
2022/09/30 07:38:10;;;;;;;12.07;8.87;;;;;;;;;;5073082;28;20575;-61
2022/09/30 07:40:38;;;;;;;16.47;8.77;;;;;;;;;;5073335;28;20451;-61
2022/09/30 07:43:05;;;;;;;9.90;8.67;;;;;;;;;;5073181;28;20458;-61
2022/09/30 07:45:32;;;;;;;9.63;8.63;;;;;;;;;;5073304;28;20458;-61
2022/09/30 07:47:59;;;;;;;10.13;9.13;;;;;;;;;;5073203;28;20909;-61
2022/09/30 07:50:26;;;;;;;19.10;8.43;;;;;;;;;;5073115;28;20811;-61
2022/09/30 07:52:55;;;;;;;9.77;8.80;;;;;;;;;;5073240;28;20504;-61
2022/09/30 07:55:22;;;;;;;11.27;10.17;;;;;;;;;;5073170;28;20454;-61
2022/09/30 07:57:50;;;;;;;9.40;8.43;;;;;;;;;;5072961;28;20493;-61
2022/09/30 08:00:17;;;;;;;10.20;8.60;;;;;;;;;;5073019;28;20443;-61
2022/09/30 08:02:44;;;;;;;9.77;7.53;;;;;;;;;;5072723;28;20538;-61
2022/09/30 08:05:11;;;;;;;8.80;8.00;;;;;;;;;;5072874;28;20452;-61
2022/09/30 08:07:40;;;;;;;8.37;7.57;;;;;;;;;;5072739;28;20994;-61
2022/09/30 08:10:08;;;;;;;8.30;7.50;;;;;;;;;;5068935;28;20458;-61
2022/09/30 08:12:34;;;;;;;10.03;8.90;;;;;;;;;;5069928;28;20473;-64
2022/09/30 08:15:04;;;;;;;8.07;7.37;;;;;;;;;;5072521;28;20810;-63
2022/09/30 08:17:31;;;;;;;8.67;7.87;;;;;;;;;;5071046;28;20511;-64
2022/09/30 08:19:58;;;;;;;7.20;6.60;;;;;;;;;;5071488;28;20538;-64
2022/09/30 08:22:27;;;;;;;7.87;7.03;;;;;;;;;;5071104;28;20490;-64
2022/09/30 08:24:53;;;;;;;8.80;6.97;;;;;;;;;;5072517;28;20457;-64
2022/09/30 08:27:20;;;;;;;9.60;7.40;;;;;;;;;;5071424;28;20455;-63
2022/09/30 08:29:47;;;;;;;11.47;6.97;;;;;;;;;;5071989;28;20459;-63
2022/09/30 08:32:16;;;;;;;7.50;6.80;;;;;;;;;;5070228;28;20443;-60
2022/09/30 08:34:43;;;;;;;7.07;6.47;;;;;;;;;;5069736;28;20893;-60
2022/09/30 08:37:10;;;;;;;7.27;6.67;;;;;;;;;;5072143;28;20568;-60
2022/09/30 08:39:37;;;;;;;6.87;6.27;;;;;;;;;;5067593;28;20550;-60
2022/09/30 08:42:11;;;;;;;8.30;6.83;;;;;;;;;;5071844;28;20435;-60
2022/09/30 08:44:41;;;;;;;7.20;6.60;;;;;;;;;;5071441;28;20452;-61
2022/09/30 08:47:15;;;;;;;7.47;6.70;;;;;;;;;;5072362;28;20458;-60
2022/09/30 08:49:49;;;;;;;6.00;5.40;;;;;;;;;;5070796;28;20542;-60
2022/09/30 08:52:18;;;;;;;8.27;6.43;;;;;;;;;;5072409;28;20443;-60
2022/09/30 08:54:47;;;;;;;9.53;5.60;;;;;;;;;;5072420;28;20447;-60
2022/09/30 08:57:14;;;;;;;7.50;5.13;;;;;;;;;;5072179;28;20501;-61
2022/09/30 08:59:43;;;;;;;6.20;5.80;;;;;;;;;;5070506;28;20913;-61
2022/09/30 09:02:15;;;;;;;6.10;5.60;;;;;;;;;;5069546;28;20447;-63
2022/09/30 09:04:42;;;;;;;6.13;5.53;;;;;;;;;;5058045;28;20543;-61
2022/09/30 09:07:17;;;;;;;8.40;5.17;;;;;;;;;;5069081;28;20447;-60
2022/09/30 09:09:49;;;;;;;5.33;4.90;;;;;;;;;;5072149;28;20451;-61
2022/09/30 09:12:26;;;;;;;6.03;5.43;;;;;;;;;;5071560;28;20457;-62
2022/09/30 09:14:59;;;;;;;5.57;5.17;;;;;;;;;;5062951;28;20452;-64
2022/09/30 09:17:36;;;;;;;4.67;4.27;;;;;;;;;;5062191;28;20785;-63
2022/09/30 09:20:05;;;;;;;5.30;4.90;;;;;;;;;;5074877;28;20871;-61
2022/09/30 09:22:34;;;;;;;5.40;5.00;;;;;;;;;;5074323;28;20479;-62
2022/09/30 09:25:02;;;;;;;5.33;4.93;;;;;;;;;;5074659;28;20968;-59
2022/09/30 09:27:31;;;;;;;5.50;5.00;;;;;;;;;;5085916;28;20447;-65
2022/09/30 09:30:11;;;;;;;5.67;5.27;;;;;;;;;;5074669;28;20510;-64
2022/09/30 09:32:38;;;;;;;5.83;5.33;;;;;;;;;;5075575;28;20443;-62
2022/09/30 09:35:13;;;;;;;10.20;5.03;;;;;;;;;;5084218;28;20817;-62
2022/09/30 09:40:35;;;;;;;5.83;5.33;;;;;;;;;;5075287;28;20495;-62
2022/09/30 09:43:13;;;;;;;4.83;4.47;;;;;;;;;;5085943;28;20448;-62
2022/09/30 09:45:42;;;;;;;5.60;5.10;;;;;;;;;;5073109;28;20885;-61
2022/09/30 09:48:12;;;;;;;5.93;5.33;;;;;;;;;;5075726;28;20451;-61
2022/09/30 09:50:43;;;;;;;5.30;4.90;;;;;;;;;;5075390;28;20447;-59
2022/09/30 09:53:17;;;;;;;7.13;4.87;;;;;;;;;;5062704;28;20680;-62
2022/09/30 09:55:44;;;;;;;4.73;4.33;;;;;;;;;;5072464;28;20473;-62
2022/09/30 09:58:12;;;;;;;5.63;4.93;;;;;;;;;;5073242;28;20483;-62
2022/09/30 10:03:22;;;;;;;5.60;5.07;;;;;;;;;;5074860;28;20463;-63
2022/09/30 10:06:00;;;;;;;4.23;3.90;;;;;;;;;;5073424;28;20501;-64
2022/09/30 10:08:30;;;;;;;5.40;5.00;;;;;;;;;;5069255;28;20793;-64
2022/09/30 10:10:59;;;;;;;4.73;4.33;;;;;;;;;;5064211;28;20814;-64
2022/09/30 10:13:27;;;;;;;5.37;4.87;;;;;;;;;;5072171;28;20482;-59
2022/09/30 10:15:55;;;;;;;12.50;5.30;;;;;;;;;;5072169;28;20458;-59
2022/09/30 10:18:25;;;;;;;3.77;3.50;;;;;;;;;;5074604;28;20467;-59
2022/09/30 10:20:54;;;;;;;5.03;4.63;;;;;;;;;;5074910;28;20578;-62
2022/09/30 10:23:22;;;;;;;7.00;5.03;;;;;;;;;;5073701;28;20457;-60
2022/09/30 10:25:59;;;;;;;4.43;4.13;;;;;;;;;;5064990;28;20452;-60
2022/09/30 10:28:27;;;;;;;4.53;4.13;;;;;;;;;;5073536;28;20451;-61
2022/09/30 10:30:55;;;;;;;5.47;4.93;;;;;;;;;;5072820;28;20454;-64
2022/09/30 10:33:24;;;;;;;4.60;4.20;;;;;;;;;;5070803;28;20478;-63
2022/09/30 10:35:55;;;;;;;4.60;4.30;;;;;;;;;;5072343;28;20962;-64
2022/09/30 10:38:23;;;;;;;5.67;5.00;;;;;;;;;;5073023;28;20834;-66
2022/09/30 10:40:51;;;;;;;4.77;3.73;;;;;;;;;;5074490;28;20499;-68
2022/09/30 10:43:22;;;;;;;4.30;4.00;;;;;;;;;;5074983;28;20447;-68
2022/09/30 10:45:50;;;;;;;4.53;4.23;;;;;;;;;;5073274;28;20471;-64
2022/09/30 10:48:18;;;;;;;5.70;3.67;;;;;;;;;;5074477;28;20443;-64
2022/09/30 10:50:50;;;;;;;4.60;3.90;;;;;;;;;;5072138;28;20458;-62
2022/09/30 10:53:20;;;;;;;4.17;3.87;;;;;;;;;;5061727;28;20452;-66
2022/09/30 10:55:47;;;;;;;5.10;4.20;;;;;;;;;;5066131;28;20474;-63
2022/09/30 10:58:28;;;;;;;6.33;4.40;;;;;;;;;;5073047;28;20990;-63
2022/09/30 11:00:58;;;;;;;5.80;4.43;;;;;;;;;;5074127;28;20448;-63
2022/09/30 11:03:27;;;;;;;4.10;3.80;;;;;;;;;;5074200;28;20448;-63
2022/09/30 11:05:54;;;;;;;4.13;3.73;;;;;;;;;;5074013;28;20454;-62
2022/09/30 11:08:22;;;;;;;4.00;3.70;;;;;;;;;;5073982;28;20760;-63
2022/09/30 11:10:54;;;;;;;3.57;3.27;;;;;;;;;;5074218;28;20542;-63
2022/09/30 11:13:24;;;;;;;3.90;3.60;;;;;;;;;;5074028;28;20439;-63
2022/09/30 11:15:57;;;;;;;4.20;3.90;;;;;;;;;;5073821;28;20961;-63
2022/09/30 11:18:28;;;;;;;2.87;2.67;;;;;;;;;;5073866;28;20919;-62
2022/09/30 11:20:57;;;;;;;4.30;3.90;;;;;;;;;;5073491;28;20475;-63
2022/09/30 11:23:29;;;;;;;3.87;3.57;;;;;;;;;;5073879;28;20458;-63
2022/09/30 11:25:59;;;;;;;4.33;3.40;;;;;;;;;;5073853;28;20454;-63
2022/09/30 11:28:36;;;;;;;4.80;3.20;;;;;;;;;;5073830;28;20473;-62
2022/09/30 11:31:09;;;;;;;4.30;4.00;;;;;;;;;;5073653;28;20538;-63
2022/09/30 11:33:42;;;;;;;3.57;3.27;;;;;;;;;;5073348;28;20473;-63
2022/09/30 11:36:13;;;;;;;3.33;3.03;;;;;;;;;;5072855;28;20542;-63
2022/09/30 11:38:47;;;;;;;3.07;2.87;;;;;;;;;;5073482;28;20920;-63
2022/09/30 11:41:18;;;;;;;3.30;3.10;;;;;;;;;;5073544;28;20546;-63
2022/09/30 11:43:51;;;;;;;2.97;2.77;;;;;;;;;;5073214;28;20788;-63
2022/09/30 11:46:24;;;;;;;2.80;2.60;;;;;;;;;;5073524;28;20447;-63
2022/09/30 11:48:58;;;;;;;3.90;3.50;;;;;;;;;;5073383;28;20459;-63
2022/09/30 11:51:29;;;;;;;3.10;2.80;;;;;;;;;;5073313;28;20451;-63
2022/09/30 11:54:06;;;;;;;3.20;2.90;;;;;;;;;;5073214;28;20458;-63
2022/09/30 11:56:38;;;;;;;5.53;3.33;;;;;;;;;;5073074;28;20462;-63
2022/09/30 11:59:11;;;;;;;2.40;2.20;;;;;;;;;;5073218;28;20839;-63
2022/09/30 12:01:43;;;;;;;2.80;2.60;;;;;;;;;;5073148;28;20554;-63
2022/09/30 12:04:14;;;;;;;2.83;2.60;;;;;;;;;;5072862;28;20455;-62
2022/09/30 12:06:43;;;;;;;5.57;3.37;;;;;;;;;;5072780;28;20550;-63
2022/09/30 12:09:15;;;;;;;3.40;3.20;;;;;;;;;;5073024;28;20589;-63
2022/09/30 12:11:45;;;;;;;3.60;3.00;;;;;;;;;;5073202;28;20890;-63
2022/09/30 12:14:15;;;;;;;3.63;3.10;;;;;;;;;;5072954;28;20542;-63
2022/09/30 12:16:45;;;;;;;3.40;2.80;;;;;;;;;;5072857;28;20458;-63
2022/09/30 12:19:15;;;;;;;3.50;3.00;;;;;;;;;;5072567;28;20554;-63
2022/09/30 12:21:47;;;;;;;2.70;2.50;;;;;;;;;;5072690;28;20475;-63
2022/09/30 12:24:20;;;;;;;3.60;3.40;;;;;;;;;;5072842;28;20483;-62
2022/09/30 12:26:48;;;;;;;4.60;3.20;;;;;;;;;;5072767;28;20542;-62
2022/09/30 12:32:19;;;;;;;2.60;2.40;;;;;;;;;;5072811;28;20438;-62
2022/09/30 12:34:53;;;;;;;2.63;2.53;;;;;;;;;;5072633;28;20446;-62
2022/09/30 12:37:37;;;;;;;3.63;3.43;;;;;;;;;;5072673;28;20446;-62
2022/09/30 12:40:09;;;;;;;4.93;3.03;;;;;;;;;;5072512;28;20501;-63
2022/09/30 12:42:54;;;;;;;2.67;2.40;;;;;;;;;;5072549;28;21014;-62
2022/09/30 12:45:29;;;;;;;4.13;3.07;;;;;;;;;;5051406;28;20829;-62
2022/09/30 12:47:59;;;;;;;3.27;3.07;;;;;;;;;;5073189;28;20458;-62
2022/09/30 12:50:28;;;;;;;3.00;2.80;;;;;;;;;;5076751;28;20796;-63
2022/09/30 12:52:56;;;;;;;2.97;2.77;;;;;;;;;;5076693;28;20518;-62
2022/09/30 12:55:26;;;;;;;3.70;3.40;;;;;;;;;;5076695;28;20455;-62
2022/09/30 12:57:54;;;;;;;5.53;4.03;;;;;;;;;;5076644;28;20451;-62
2022/09/30 13:00:22;;;;;;;4.53;4.13;;;;;;;;;;5076446;28;20494;-62
2022/09/30 13:02:54;;;;;;;3.70;3.40;;;;;;;;;;5076437;28;20454;-62
2022/09/30 13:05:39;;;;;;;3.83;3.63;;;;;;;;;;5076307;28;20939;-62
2022/09/30 13:08:24;;;;;;;3.80;2.97;;;;;;;;;;5076501;28;20530;-62
2022/09/30 13:10:56;;;;;;;4.00;3.70;;;;;;;;;;5076457;28;20453;-62
2022/09/30 13:13:24;;;;;;;3.70;3.40;;;;;;;;;;5076135;28;20458;-63
2022/09/30 13:15:51;;;;;;;3.03;2.77;;;;;;;;;;5076172;28;20964;-62
2022/09/30 13:18:39;;;;;;;3.07;2.87;;;;;;;;;;5076075;28;20482;-63
2022/09/30 13:21:23;;;;;;;3.77;3.07;;;;;;;;;;5075803;28;20514;-63
2022/09/30 13:23:51;;;;;;;3.40;2.87;;;;;;;;;;5075906;28;20453;-62
2022/09/30 13:26:32;;;;;;;3.23;3.00;;;;;;;;;;5076017;28;20802;-64
2022/09/30 13:29:14;;;;;;;3.03;2.57;;;;;;;;;;5075888;28;20443;-62
2022/09/30 13:31:56;;;;;;;3.17;2.97;;;;;;;;;;5075654;28;20659;-62
2022/09/30 13:34:24;;;;;;;2.97;2.60;;;;;;;;;;5075578;28;20482;-62
2022/09/30 13:36:58;;;;;;;2.40;2.20;;;;;;;;;;5075700;28;20954;-63
2022/09/30 13:39:28;;;;;;;3.40;3.10;;;;;;;;;;5075480;28;20988;-62
2022/09/30 13:42:02;;;;;;;3.53;2.53;;;;;;;;;;5075660;28;20821;-62
2022/09/30 13:44:33;;;;;;;2.70;2.50;;;;;;;;;;5075581;28;20806;-62
2022/09/30 13:47:02;;;;;;;2.77;2.60;;;;;;;;;;5075469;28;20454;-62
2022/09/30 13:49:34;;;;;;;3.83;2.80;;;;;;;;;;5075695;28;20447;-63
2022/09/30 13:52:02;;;;;;;2.30;2.20;;;;;;;;;;5075699;28;20444;-62
2022/09/30 13:54:34;;;;;;;2.10;1.90;;;;;;;;;;5075506;28;20443;-62
2022/09/30 13:57:02;;;;;;;2.80;2.60;;;;;;;;;;5075462;28;20493;-63
2022/09/30 13:59:38;;;;;;;6.10;2.93;;;;;;;;;;5074684;28;21029;-63
2022/09/30 14:02:15;;;;;;;3.87;2.73;;;;;;;;;;5075501;28;20448;-63
2022/09/30 14:04:55;;;;;;;2.43;2.23;;;;;;;;;;5075291;28;20450;-63
2022/09/30 14:07:29;;;;;;;3.70;2.37;;;;;;;;;;5075241;28;20446;-62
2022/09/30 14:10:04;;;;;;;2.03;1.93;;;;;;;;;;5075381;28;20500;-63
2022/09/30 14:12:36;;;;;;;2.33;2.20;;;;;;;;;;5075348;28;20538;-63
2022/09/30 14:15:12;;;;;;;6.80;3.43;;;;;;;;;;5075064;28;20443;-62
2022/09/30 14:17:43;;;;;;;2.50;1.90;;;;;;;;;;5075121;28;20451;-62
2022/09/30 14:20:18;;;;;;;1.73;1.63;;;;;;;;;;5074888;28;20842;-63
2022/09/30 14:22:46;;;;;;;2.90;2.70;;;;;;;;;;5074720;28;20474;-63
2022/09/30 14:25:16;;;;;;;2.03;1.87;;;;;;;;;;5075222;28;20447;-63
2022/09/30 14:27:47;;;;;;;1.93;1.57;;;;;;;;;;5074932;28;20447;-63
2022/09/30 14:30:15;;;;;;;6.23;5.77;;;;;;;;;;5074870;28;20458;-62
2022/09/30 14:32:46;;;;;;;3.60;3.40;;;;;;;;;;5074614;28;20474;-63
2022/09/30 14:35:17;;;;;;;7.27;6.53;;;;;;;;;;5074983;28;20447;-63
2022/09/30 14:37:46;;;;;;;2.90;2.70;;;;;;;;;;5074673;28;20447;-62
2022/09/30 14:40:17;;;;;;;3.87;3.57;;;;;;;;;;5074578;28;20557;-63
2022/09/30 14:42:46;;;;;;;2.80;1.90;;;;;;;;;;5074387;28;20453;-63
2022/09/30 14:45:16;;;;;;;4.33;2.60;;;;;;;;;;5074391;28;20500;-63
2022/09/30 14:47:45;;;;;;;1.87;1.77;;;;;;;;;;5074312;28;20935;-63
2022/09/30 14:50:15;;;;;;;1.43;1.33;;;;;;;;;;5074625;28;20447;-63
2022/09/30 14:52:44;;;;;;;3.50;2.60;;;;;;;;;;5074325;28;20865;-62
2022/09/30 14:55:24;;;;;;;3.20;1.93;;;;;;;;;;5074355;28;20530;-62
2022/09/30 14:57:51;;;;;;;1.80;1.50;;;;;;;;;;5074182;28;20530;-63
2022/09/30 15:00:22;;;;;;;1.67;1.57;;;;;;;;;;5074136;28;20483;-63
2022/09/30 15:02:49;;;;;;;2.33;2.23;;;;;;;;;;5074180;28;20452;-63
2022/09/30 15:05:16;;;;;;;2.10;1.90;;;;;;;;;;5074174;28;20439;-63